Ana Sayfa
METAR-TAF:

METAR-TAF

Havaalanları :

Clovis, New Mexico, Amerika Birleşik Devletleri

Enlem: 34-26N, Boylam: 103-05W, yükseklik: 1284 m

Güncel hava durumu gözlemi

Rapor saat 23:56 UTC de 25 dakika önce yapıldı.
Rüzgar kuzeydoğudan 20 kt ve 30 kt'a kadar ani rüzgarlar
Sıcaklık 9°C
Nem 46%
Basınç 1017 hPa
Görüş mesafesi: 16.1 km
Açık gökyüzü

METAR: KCVN 162356Z AUTO 04020G30KT 10SM CLR 09/M02 A3004 RMK AO2 PK WND 03032/2343 SLP168 T00941022 10144 20094 53012

Saat: 18:21 (00:21 UTC)


TAF: eksik

4.000'den fazla havaalanı için hava durumu gözlemleri ve tahminleri (METAR ve TAF raporları).

Kullanılabilir istasyonlar harita üzerinde sarı ve kırmızı noktalarla gösterilir.

İstasyonun adını görmek için fareyi noktanın üzerinde gezdirin.

Sonrasında hava gözlem ve tahminlerini görmek için tıklayın.

Haritayı değiştirmek için: yaklaştırmak için siyah artı işaretli yeşil düğmeye ve uzaklaştırmak için de eksi işaretli düğmeye hızla tıklayın; bitişik haritalar için yeşil okları kullanın.


METAR-TAF: